Flight Track Log - Related Links

Times and Time Zones

All times are in EDT time to prevent confusion due to time zone crossing. See the N131PT flight status page for this flight to view local times or setup timezone preferences in your user account.

Time Position Orientation Groundspeed Altitude Reporting Facility
EDT Latitude Longitude Course Direction KTS MPH feet Rate Location/Type
Sat 21:12:49 41.8167 -87.7167 104° East 157 181 2,400  Level Chicago TRACON
Sat 21:13:49 41.8167 -87.6500 90° East 172 198 3,600 1,099 Climbing Chicago TRACON
Sat 21:15:11 41.7978 -87.5767 109° East 175 201 5,000 545 Climbing Chicago Center
Sat 21:16:12 41.7728 -87.5147 118° Southeast 187 215 4,900 -49 Descending Chicago Center
Sat 21:17:00 41.6846 -87.2195 104° East  Level Estimated
Sat 21:17:13 41.7481 -87.4533 118° Southeast 188 216 4,900  Level Chicago Center
Sat 21:18:00 41.6674 -87.1309 104° East  Level Estimated
Sat 21:18:14 41.7489 -87.3894 89° East 172 198 4,900  Level Chicago Center
Sat 21:19:15 41.7514 -87.3256 87° East 172 198 5,400 836 Climbing Chicago Center
Sat 21:20:16 41.7536 -87.2639 87° East 168 193 6,600 1,082 Climbing Chicago Center
Sat 21:21:17 41.7564 -87.2006 87° East 172 198 7,600 1,033 Climbing Chicago Center
Sat 21:22:18 41.7556 -87.1347 91° East 177 204 8,700 1,180 Climbing Chicago Center
Sat 21:23:19 41.7539 -87.0553 92° East 181 208 10,000 639 Climbing Chicago Center
Sat 21:24:20 41.7528 -86.9819 91° East 197 227 10,000  Level Chicago Center
Sat 21:25:21 41.7544 -86.9058 88° East 205 236 10,000  Level Chicago Center
Sat 21:26:22 41.7567 -86.8311 88° East 203 234 10,000  Level Chicago Center
Sat 21:27:23 41.7586 -86.7542 88° East 205 236 10,000 49 Level Chicago Center
Sat 21:28:24 41.7592 -86.6817 89° East 207 238 10,100 639 Climbing Chicago Center
Sat 21:29:25 41.7619 -86.6128 87° East 190 219 11,300 1,091 Climbing Chicago Center
Sat 21:30:25 41.7636 -86.5433 88° East 186 214 12,300 1,041 Climbing Chicago Center
Sat 21:31:26 41.7642 -86.4731 89° East 189 217 13,400 1,131 Climbing Chicago Center
Sat 21:32:27 41.7672 -86.3894 87° East 188 216 14,600 1,082 Climbing Chicago Center
Sat 21:33:28 41.7672 -86.3189 90° East 190 219 15,600 984 Climbing Chicago Center
Sat 21:34:29 41.7644 -86.2472 93° East 193 222 16,600 984 Climbing Chicago Center
Sat 21:35:30 41.7597 -86.1761 95° East 193 222 17,600 893 Climbing Chicago Center
Sat 21:36:30 41.7550 -86.1017 95° East 198 228 18,400 843 Climbing Chicago Center
Sat 21:37:31 41.7506 -86.0272 95° East 202 232 19,300 836 Climbing Chicago Center
Sat 21:38:32 41.7453 -85.9514 95° East 204 235 20,100 984 Climbing Chicago Center
Sat 21:39:33 41.7408 -85.8747 94° East 207 238 21,300 992 Climbing Chicago Center
Sat 21:40:33 41.7356 -85.8025 96° East 199 229 22,100 942 Climbing Chicago Center
Sat 21:41:34 41.7319 -85.7275 94° East 200 230 23,200 934 Climbing Chicago Center
Sat 21:42:35 41.7269 -85.6494 95° East 208 239 24,000 836 Climbing Chicago Center
Sat 21:43:36 41.7217 -85.5678 95° East 218 251 24,900 496 Climbing Chicago Center
Sat 21:44:36 41.7169 -85.4792 94° East 237 273 25,000 50 Climbing Chicago Center
Sat 21:45:37 41.7108 -85.3794 95° East 260 299 25,000  Level Chicago Center
Sat 21:46:38 41.7025 -85.2806 96° East 263 303 25,000  Level Chicago Center
Sat 21:47:39 41.6956 -85.1814 95° East 266 306 25,000  Level Chicago Center
Sat 21:48:39 41.6886 -85.0828 95° East 266 306 25,000  Level Chicago Center
Sat 21:49:40 41.6814 -84.9850 96° East 265 305 25,000  Level Chicago Center
Sat 21:50:41 41.6742 -84.8869 96° East 265 305 25,000  Level Chicago Center
Sat 21:51:41 41.6667 -84.7900 96° East 263 303 25,000  Level Chicago Center
Sat 21:52:42 41.6617 -84.6906 94° East 267 307 25,000  Level Chicago Center
Sat 21:53:43 41.6592 -84.5925 92° East 265 305 25,000  Level Chicago Center
Sat 21:54:15 41.6542 -84.5325 96° East 260 299 25,000  Level Cleveland Center
Sat 21:55:15 41.6281 -84.4394 111° Southeast 260 299 25,000  Level Cleveland Center
Sat 21:56:15 41.6022 -84.3433 110° East 266 306 25,000  Level Cleveland Center
Sat 21:56:45 41.5847 -84.2847 112° Southeast 275 316 25,000  Level Chicago Center
Sat 21:57:45 41.5586 -84.1894 110° East 274 315 25,000  Level Chicago Center
Sat 21:58:46 41.5328 -84.0939 110° East 273 314 25,000  Level Chicago Center
Sat 21:59:47 41.5067 -83.9983 110° East 276 318 25,000  Level Chicago Center
Sat 22:00:47 41.4792 -83.9056 112° Southeast 271 312 25,000  Level Chicago Center
Sat 22:02:15 41.4361 -83.7658 112° Southeast 272 313 25,000  Level Cleveland Center
Sat 22:03:15 41.4097 -83.6703 110° East 272 313 25,000  Level Cleveland Center
Sat 22:04:15 41.3850 -83.5778 110° East 272 313 25,000  Level Cleveland Center
Sat 22:05:15 41.3583 -83.4825 110° East 272 313 25,000  Level Cleveland Center
Sat 22:06:15 41.3314 -83.3872 111° Southeast 272 313 25,000  Level Cleveland Center
Sat 22:07:15 41.3044 -83.2947 111° Southeast 272 313 25,000  Level Cleveland Center
Sat 22:08:15 41.2775 -83.1997 111° Southeast 272 313 25,000  Level Cleveland Center
Sat 22:09:15 41.2544 -83.1131 109° East 272 313 25,000  Level Cleveland Center
Sat 22:10:15 41.2294 -83.0211 110° East 272 313 25,000  Level Cleveland Center
Sat 22:11:15 41.2022 -82.9261 111° Southeast 272 313 25,000  Level Cleveland Center
Sat 22:12:15 41.1728 -82.8342 113° Southeast 272 313 25,000  Level Cleveland Center
Sat 22:13:15 41.1475 -82.7394 109° East 272 313 25,000  Level Cleveland Center
Sat 22:14:15 41.1181 -82.6364 111° Southeast 272 313 25,000  Level Cleveland Center
Sat 22:15:15 41.0906 -82.5419 111° Southeast 272 313 25,000  Level Cleveland Center
Sat 22:16:15 41.0608 -82.4475 113° Southeast 272 313 25,000  Level Cleveland Center
Sat 22:17:15 41.0353 -82.3531 110° East 277 319 25,000  Level Cleveland Center
Sat 22:18:15 41.0075 -82.2617 112° Southeast 270 311 25,000  Level Cleveland Center
Sat 22:19:15 40.9797 -82.1672 111° Southeast 270 311 25,000  Level Cleveland Center
Sat 22:20:15 40.9539 -82.0733 110° East 276 318 25,000  Level Cleveland Center
Sat 22:21:15 40.9236 -81.9819 114° Southeast 271 312 25,000  Level Cleveland Center
Sat 22:22:15 40.8956 -81.8850 111° Southeast 271 312 25,000  Level Cleveland Center
Sat 22:23:15 40.8675 -81.7911 112° Southeast 271 312 25,000  Level Cleveland Center
Sat 22:24:15 40.8372 -81.6972 113° Southeast 271 312 25,000  Level Cleveland Center
Sat 22:25:15 40.8108 -81.6036 110° East 271 312 25,000  Level Cleveland Center
Sat 22:26:15 40.7825 -81.5128 112° Southeast 271 312 25,000  Level Cleveland Center
Sat 22:27:15 40.7542 -81.4164 111° Southeast 271 312 25,000  Level Cleveland Center
Sat 22:28:15 40.7275 -81.3311 112° Southeast 271 312 25,000  Level Cleveland Center
Sat 22:29:15 40.6989 -81.2403 113° Southeast 271 312 25,000  Level Cleveland Center
Sat 22:30:15 40.6703 -81.1442 111° Southeast 271 312 25,000  Level Cleveland Center
Sat 22:31:15 40.6417 -81.0428 110° East 271 312 25,000  Level Cleveland Center
Sat 22:32:15 40.6128 -80.9522 113° Southeast 271 312 25,000  Level Cleveland Center
Sat 22:33:15 40.5858 -80.8592 111° Southeast 271 312 25,000  Level Cleveland Center
Sat 22:34:15 40.5569 -80.7689 113° Southeast 271 312 25,000  Level Cleveland Center
Sat 22:35:15 40.5278 -80.6733 112° Southeast 271 312 25,000  Level Cleveland Center
Sat 22:36:15 40.4986 -80.5778 112° Southeast 271 312 25,000  Level Cleveland Center
Sat 22:37:15 40.4694 -80.4875 113° Southeast 271 312 25,000  Level Cleveland Center
Sat 22:38:15 40.4403 -80.3922 112° Southeast 271 312 25,000  Level Cleveland Center
Sat 22:39:15 40.4086 -80.3158 119° Southeast 271 312 25,000  Level Cleveland Center
Sat 22:40:15 40.3792 -80.2233 113° Southeast 271 312 25,000  Level Cleveland Center
Sat 22:41:15 40.3478 -80.1200 112° Southeast 277 319 25,000  Level Cleveland Center
Sat 22:42:15 40.3203 -80.0303 112° Southeast 271 312 25,000  Level Cleveland Center
Sat 22:43:15 40.2947 -79.9489 112° Southeast 266 306 25,000  Level Cleveland Center
Sat 22:44:15 40.2669 -79.8594 112° Southeast 266 306 25,000  Level Cleveland Center
Sat 22:45:15 40.2372 -79.7672 113° Southeast 271 312 25,000  Level Cleveland Center
Sat 22:46:15 40.2094 -79.6778 112° Southeast 271 312 25,000  Level Cleveland Center
Sat 22:47:15 40.1794 -79.5858 113° Southeast 271 312 25,000  Level Cleveland Center
Sat 22:48:15 40.1494 -79.4967 114° Southeast 271 312 25,000 -250 Level Cleveland Center
Sat 22:49:15 40.1150 -79.3914 113° Southeast 271 312 24,500 -500 Descending Cleveland Center
Sat 22:50:15 40.0808 -79.2969 115° Southeast 271 312 24,000 -500 Descending Cleveland Center
Sat 22:51:15 40.0547 -79.2106 112° Southeast 276 318 23,500 -489 Descending Cleveland Center
Sat 22:53:19 39.9922 -79.0172 113° Southeast 278 320 22,500 -623 Descending Washington Center
Sat 22:54:18 39.9614 -78.9264 114° Southeast 278 320 21,600 -950 Descending Washington Center
Sat 22:55:19 39.9286 -78.8328 115° Southeast 278 320 20,600 -934 Descending Washington Center
Sat 22:56:20 39.8997 -78.7422 113° Southeast 278 320 19,700 -850 Descending Washington Center
Sat 22:57:19 39.8667 -78.6461 114° Southeast 278 320 18,900 -900 Descending Washington Center
Sat 22:58:20 39.8314 -78.5636 119° Southeast 278 320 17,900 -908 Descending Washington Center
Sat 22:59:18 39.7872 -78.4889 128° Southeast 272 313 17,100 -750 Descending Washington Center
Sat 23:00:20 39.7389 -78.4142 130° Southeast 267 307 16,400 -787 Descending Washington Center
Sat 23:01:20 39.6947 -78.3422 129° Southeast 256 295 15,500 -900 Descending Washington Center
Sat 23:02:20 39.6525 -78.2758 130° Southeast 256 295 14,600 -850 Descending Washington Center
Sat 23:03:20 39.6083 -78.2042 129° Southeast 256 295 13,800 -950 Descending Washington Center
Sat 23:04:20 39.5658 -78.1381 130° Southeast 251 289 12,700 -1,361 Descending Washington Center
Sat 23:05:19 39.5256 -78.0747 129° Southeast 238 274 11,100 -1,513 Descending Washington Center
Sat 23:06:19 39.4831 -78.0089 130° Southeast 238 274 9,700 -1,289 Descending Washington Center
Sat 23:07:20 39.4428 -77.9456 129° Southeast 238 274 8,500 -1,050 Descending Washington Center
Sat 23:08:19 39.4150 -77.8694 115° Southeast 231 266 7,600 -513 Descending Washington Center
Sat 23:09:17 39.4228 -77.7944 82° East 204 235 7,500 -100 Descending Washington Center
Sat 23:10:19 39.4303 -77.7169 83° East 204 235 7,400 -149 Descending Washington Center
Sat 23:11:18 39.4356 -77.6472 84° East 204 235 7,200 -578 Descending Washington Center
Sat 23:13:05 39.4500 -77.5167 82° East 209 241 5,800 -790 Descending Potomac TRACON
Sat 23:14:05 39.4500 -77.4333 90° East 210 242 5,000 -400 Descending Potomac TRACON
Sat 23:15:05 39.4500 -77.3667 90° East 197 227 5,000  Level Potomac TRACON
Sat 23:16:05 39.4500 -77.3000 90° East 195 224 5,000  Level Potomac TRACON
Sat 23:17:05 39.4333 -77.2333 108° East 207 238 5,000  Level Potomac TRACON
Sat 23:18:05 39.4333 -77.1500 90° East 205 236 5,000  Level Potomac TRACON
Sat 23:19:05 39.4167 -77.0833 108° East 205 236 5,000  Level Potomac TRACON
Sat 23:20:05 39.4167 -77.0000 90° East 208 239 5,000  Level Potomac TRACON
Sat 23:21:05 39.4000 -76.9333 108° East 207 238 5,000  Level Potomac TRACON
Sat 23:22:05 39.4000 -76.8667 90° East 206 237 5,000  Level Potomac TRACON
Sat 23:23:05 39.3667 -76.8000 123° Southeast 208 239 5,000  Level Potomac TRACON
Sat 23:24:05 39.3167 -76.7500 142° Southeast 208 239 5,000  Level Potomac TRACON
Sat 23:25:05 39.2833 -76.7000 131° Southeast 207 238 5,000  Level Potomac TRACON
Sat 23:26:05 39.2333 -76.6500 142° Southeast 212 244 5,000 -150 Level Potomac TRACON
Sat 23:27:05 39.2000 -76.6000 131° Southeast 213 245 4,700 -550 Descending Potomac TRACON
Sat 23:28:05 39.1500 -76.5500 142° Southeast 206 237 3,900 -850 Descending Potomac TRACON
Sat 23:29:05 39.1167 -76.5000 131° Southeast 200 230 3,000 -900 Descending Potomac TRACON
Sat 23:30:05 39.1000 -76.4333 108° East 199 229 2,100 -500 Descending Potomac TRACON
Sat 23:31:05 39.0667 -76.3667 123° Southeast 193 222 2,000 -238 Descending Potomac TRACON
Sat 23:32:11 39.0500 -76.3000 108° East 195 224 1,600 -381 Descending Potomac TRACON
Sat 23:33:11 39.0333 -76.2333 108° East 184 212 1,200 -200 Descending Potomac TRACON
Sat 23:34:11 39.0000 -76.2333 180° South 154 177 1,200 -105 Level Potomac TRACON
Sat 23:35:05 38.9833 -76.2500 218° Southwest 99 114 1,000 -263 Descending Potomac TRACON
Sat 23:36:05 38.9667 -76.2833 237° Southwest 99 114 700 -300 Descending Potomac TRACON
Sat 23:41:00 38.9667 -76.3167 142° Southeast  Level FlightAware Approximate
Sat 23:48:00 38.9765 -76.3300 142° Southeast  Level Estimated

Login

Don't have an account? Register now (free) for customized features, flight alerts, and more!